createdAt,value
2019-02-20T00:04:16.762Z,2.20
2019-02-20T00:07:32.230Z,2.27
2019-02-20T00:10:48.154Z,2.50
2019-02-20T00:14:04.134Z,2.40
2019-02-20T00:17:20.094Z,2.60
2019-02-20T00:20:35.336Z,2.20
2019-02-20T00:23:51.371Z,2.53
2019-02-20T00:27:06.642Z,2.60
2019-02-20T00:30:21.913Z,2.83
2019-02-20T00:33:37.904Z,2.20
2019-02-20T00:36:53.920Z,2.40
2019-02-20T00:40:09.761Z,2.50
2019-02-20T00:43:25.166Z,2.50
2019-02-20T00:46:42.786Z,2.47
2019-02-20T00:49:58.850Z,2.60
2019-02-20T00:56:44.523Z,2.00
2019-02-20T01:00:00.461Z,2.70
2019-02-20T01:03:16.383Z,2.57
2019-02-20T01:06:31.753Z,2.27
2019-02-20T01:09:47.558Z,2.47
2019-02-20T01:13:03.466Z,2.20
2019-02-20T01:16:19.570Z,2.63
2019-02-20T01:19:35.754Z,2.47
2019-02-20T01:22:59.676Z,2.57
2019-02-20T01:26:08.973Z,2.40
2019-02-20T01:29:24.342Z,2.60
2019-02-20T01:32:40.028Z,2.70
2019-02-20T01:35:56.218Z,2.40
2019-02-20T01:39:12.255Z,2.60
2019-02-20T01:42:28.193Z,2.60
2019-02-20T01:45:44.019Z,2.50
2019-02-20T01:48:59.947Z,2.33
2019-02-20T01:52:16.015Z,2.50
2019-02-20T01:55:31.929Z,2.23
2019-02-20T01:58:47.305Z,2.70
2019-02-20T02:02:02.551Z,2.63
2019-02-20T02:05:16.178Z,2.70
2019-02-20T02:08:31.830Z,2.43
2019-02-20T02:11:47.923Z,2.40
2019-02-20T02:15:03.250Z,2.40
2019-02-20T02:18:19.239Z,2.50
2019-02-20T02:21:35.377Z,2.60
2019-02-20T02:24:51.530Z,2.80
2019-02-20T02:27:54.870Z,2.40
2019-02-20T02:31:17.562Z,2.90
2019-02-20T02:34:32.951Z,2.70
2019-02-20T02:41:28.698Z,2.60
2019-02-20T02:44:44.690Z,2.60
2019-02-20T02:48:00.511Z,2.90
2019-02-20T02:51:16.731Z,2.20
2019-02-20T02:54:32.687Z,2.47
2019-02-20T02:57:48.855Z,2.43
2019-02-20T03:01:05.045Z,2.90
2019-02-20T03:04:20.963Z,2.53
2019-02-20T03:07:37.078Z,2.63
2019-02-20T03:10:52.803Z,2.60
2019-02-20T03:14:08.958Z,2.67
2019-02-20T03:17:22.573Z,2.80
2019-02-20T03:20:38.467Z,2.40
2019-02-20T03:23:54.482Z,2.50
2019-02-20T03:27:09.902Z,2.40
2019-02-20T03:30:25.960Z,2.77
2019-02-20T03:33:42.077Z,2.30
2019-02-20T03:40:15.180Z,2.20
2019-02-20T03:43:30.874Z,2.30
2019-02-20T03:46:46.642Z,2.50
2019-02-20T03:50:01.776Z,2.40
2019-02-20T03:53:17.758Z,2.33
2019-02-20T03:56:33.732Z,2.57
2019-02-20T03:59:49.038Z,2.43
2019-02-20T04:03:04.347Z,2.60
2019-02-20T04:06:19.639Z,2.60
2019-02-20T04:09:35.747Z,2.73
2019-02-20T04:12:51.936Z,2.47
2019-02-20T04:16:07.773Z,2.43
2019-02-20T04:19:23.858Z,2.33
2019-02-20T04:22:39.929Z,2.20
2019-02-20T04:25:55.949Z,2.23
2019-02-20T04:29:11.623Z,2.70
2019-02-20T04:32:26.838Z,2.43
2019-02-20T04:35:42.671Z,2.53
2019-02-20T04:38:57.907Z,2.20
2019-02-20T04:42:13.538Z,2.20
2019-02-20T04:45:29.534Z,2.40
2019-02-20T04:48:45.264Z,2.33
2019-02-20T04:52:01.259Z,2.40
2019-02-20T04:55:17.057Z,2.20
2019-02-20T04:58:32.540Z,2.40
2019-02-20T05:01:47.714Z,2.40
2019-02-20T05:05:03.883Z,1.93
2019-02-20T05:08:20.050Z,2.23
2019-02-20T05:11:35.730Z,2.13
2019-02-20T05:14:50.995Z,2.30
2019-02-20T05:18:06.778Z,2.47
2019-02-20T05:21:22.772Z,2.40
2019-02-20T05:24:38.602Z,2.07
2019-02-20T05:27:54.206Z,2.20
2019-02-20T05:31:09.999Z,2.40
2019-02-20T05:34:26.056Z,2.10
2019-02-20T05:37:41.217Z,1.90
2019-02-20T05:40:54.806Z,2.30
2019-02-20T05:44:17.527Z,2.00
2019-02-20T05:47:33.371Z,2.30
2019-02-20T05:50:48.913Z,2.20
2019-02-20T05:54:04.602Z,2.10
2019-02-20T05:57:19.901Z,1.93
2019-02-20T06:00:35.215Z,1.83
2019-02-20T06:03:51.191Z,2.27
2019-02-20T06:07:06.675Z,2.20
2019-02-20T06:10:22.767Z,2.07
2019-02-20T06:13:38.852Z,2.37
2019-02-20T06:16:54.676Z,2.10
2019-02-20T06:20:10.462Z,2.00
2019-02-20T06:23:26.559Z,2.10
2019-02-20T06:26:42.503Z,2.27
2019-02-20T06:29:58.546Z,2.00
2019-02-20T06:33:14.355Z,2.20
2019-02-20T06:36:30.428Z,2.13
2019-02-20T06:39:46.702Z,2.00
2019-02-20T06:43:02.759Z,2.10
2019-02-20T06:46:16.403Z,1.90
2019-02-20T06:49:39.094Z,2.10
2019-02-20T06:52:54.620Z,2.00
2019-02-20T06:56:10.056Z,2.00
2019-02-20T06:59:23.728Z,2.00
2019-02-20T07:02:46.412Z,1.87
2019-02-20T07:06:02.622Z,1.90
2019-02-20T07:09:18.746Z,1.90
2019-02-20T07:12:33.999Z,2.00
2019-02-20T07:15:49.184Z,2.70
2019-02-20T07:19:05.312Z,2.60
2019-02-20T07:22:21.380Z,3.13
2019-02-20T07:29:01.329Z,2.73
2019-02-20T07:32:17.119Z,2.77
2019-02-20T07:35:34.479Z,2.80
2019-02-20T07:38:48.035Z,3.10
2019-02-20T07:42:04.069Z,3.00
2019-02-20T07:45:20.146Z,3.10
2019-02-20T07:48:35.354Z,2.87
2019-02-20T07:51:51.411Z,2.90
2019-02-20T07:55:13.395Z,3.13
2019-02-20T07:58:24.386Z,3.20
2019-02-20T08:01:39.980Z,2.87
2019-02-20T08:04:55.218Z,2.57
2019-02-20T08:08:10.712Z,2.70
2019-02-20T08:11:26.695Z,2.97
2019-02-20T08:14:41.893Z,2.63
2019-02-20T08:17:57.562Z,2.50
2019-02-20T08:21:13.268Z,2.30
2019-02-20T08:24:29.473Z,2.83
2019-02-20T08:27:44.970Z,3.77
2019-02-20T08:31:01.188Z,5.00
2019-02-20T08:34:17.093Z,6.33
2019-02-20T08:37:33.166Z,6.30
2019-02-20T08:40:49.179Z,5.43
2019-02-20T08:44:05.351Z,5.83
2019-02-20T08:47:21.250Z,5.13
2019-02-20T08:50:37.077Z,5.07
2019-02-20T08:53:53.082Z,5.13
2019-02-20T08:56:56.353Z,4.70
2019-02-20T09:00:20.963Z,5.47
2019-02-20T09:03:36.111Z,4.70
2019-02-20T09:06:52.134Z,4.67
2019-02-20T09:10:07.190Z,4.63
2019-02-20T09:16:56.065Z,4.30
2019-02-20T09:20:12.087Z,4.23
2019-02-20T09:23:28.194Z,4.47
2019-02-20T09:26:44.066Z,4.50
2019-02-20T09:30:00.363Z,4.20
2019-02-20T09:33:16.198Z,3.73
2019-02-20T09:36:31.929Z,4.10
2019-02-20T09:39:56.239Z,3.83
2019-02-20T09:43:12.321Z,4.17
2019-02-20T09:46:28.171Z,4.50
2019-02-20T09:49:41.763Z,3.80
2019-02-20T09:52:57.432Z,3.87
2019-02-20T09:56:13.458Z,3.30
2019-02-20T09:59:28.659Z,3.50
2019-02-20T10:02:44.660Z,3.47
2019-02-20T10:06:00.107Z,3.43
2019-02-20T10:09:16.379Z,3.00
2019-02-20T10:12:32.111Z,3.40
2019-02-20T10:15:48.050Z,3.70
2019-02-20T10:19:04.387Z,3.47
2019-02-20T10:22:20.496Z,3.50
2019-02-20T10:25:35.877Z,3.50
2019-02-20T10:28:53.914Z,3.30
2019-02-20T10:32:08.821Z,3.30
2019-02-20T10:35:24.200Z,3.20
2019-02-20T10:38:41.118Z,3.57
2019-02-20T10:41:56.284Z,3.17
2019-02-20T10:45:11.549Z,3.50
2019-02-20T10:48:26.741Z,3.23
2019-02-20T10:51:42.108Z,2.87
2019-02-20T10:54:57.693Z,3.00
2019-02-20T10:58:13.076Z,3.03
2019-02-20T11:01:26.697Z,3.17
2019-02-20T11:04:50.184Z,3.40
2019-02-20T11:08:06.943Z,3.17
2019-02-20T11:11:22.864Z,3.17
2019-02-20T11:14:39.020Z,2.77
2019-02-20T11:17:55.118Z,3.10
2019-02-20T11:21:08.782Z,3.00
2019-02-20T11:24:24.602Z,3.13
2019-02-20T11:27:40.471Z,3.13
2019-02-20T11:30:56.919Z,2.87
2019-02-20T11:34:12.601Z,3.00
2019-02-20T11:37:27.804Z,3.10
2019-02-20T11:40:43.261Z,2.73
2019-02-20T11:43:59.215Z,2.87
2019-02-20T11:47:15.134Z,3.00
2019-02-20T11:50:31.040Z,2.63
2019-02-20T11:53:46.464Z,2.67
2019-02-20T11:57:02.533Z,2.80
2019-02-20T12:00:18.156Z,2.33
2019-02-20T12:03:34.039Z,2.60
2019-02-20T12:06:50.006Z,2.87
2019-02-20T12:10:04.295Z,2.50
2019-02-20T12:13:17.941Z,2.80
2019-02-20T12:16:40.613Z,2.77
2019-02-20T12:19:54.417Z,2.57
2019-02-20T12:23:17.107Z,2.47
2019-02-20T12:26:35.121Z,2.20
2019-02-20T12:29:49.771Z,2.23
2019-02-20T12:33:05.602Z,2.60
2019-02-20T12:36:21.442Z,2.83
2019-02-20T12:39:36.823Z,2.27
2019-02-20T12:42:52.630Z,2.20
2019-02-20T12:46:08.552Z,2.50
2019-02-20T12:49:24.030Z,2.30
2019-02-20T12:52:39.979Z,2.47
2019-02-20T12:55:55.154Z,2.37
2019-02-20T12:59:11.357Z,2.30
2019-02-20T13:02:27.302Z,2.50
2019-02-20T13:05:43.363Z,2.23
2019-02-20T13:08:59.461Z,2.20
2019-02-20T13:12:15.427Z,2.20
2019-02-20T13:15:31.510Z,2.10
2019-02-20T13:18:47.623Z,2.13
2019-02-20T13:22:03.506Z,2.27
2019-02-20T13:25:21.044Z,2.43
2019-02-20T13:28:37.086Z,2.23
2019-02-20T13:31:52.403Z,2.00
2019-02-20T13:35:07.750Z,2.40
2019-02-20T13:38:23.800Z,2.27
2019-02-20T13:41:39.350Z,1.83
2019-02-20T13:44:55.458Z,2.30
2019-02-20T13:48:11.306Z,2.10
2019-02-20T13:51:26.794Z,2.07
2019-02-20T13:54:42.067Z,2.30
2019-02-20T13:57:58.135Z,2.07
2019-02-20T14:01:15.094Z,2.40
2019-02-20T14:04:30.921Z,2.23
2019-02-20T14:07:44.599Z,2.33
2019-02-20T14:11:07.283Z,1.93
2019-02-20T14:14:23.118Z,2.10
2019-02-20T14:17:39.667Z,1.90
2019-02-20T14:20:53.247Z,1.80
2019-02-20T14:24:16.014Z,1.90
2019-02-20T14:27:32.117Z,1.90
2019-02-20T14:30:48.276Z,1.83
2019-02-20T14:34:04.066Z,2.07
2019-02-20T14:37:20.291Z,2.07
2019-02-20T14:40:36.082Z,1.90
2019-02-20T14:43:51.478Z,2.00
2019-02-20T14:47:07.426Z,1.70
2019-02-20T14:50:23.611Z,2.00
2019-02-20T14:53:39.663Z,1.70
2019-02-20T14:56:55.643Z,1.90
2019-02-20T15:00:11.671Z,1.80
2019-02-20T15:03:27.415Z,1.90
2019-02-20T15:06:43.263Z,1.43
2019-02-20T15:09:59.420Z,1.70
2019-02-20T15:13:15.290Z,1.70
2019-02-20T15:16:31.004Z,2.00
2019-02-20T15:19:46.882Z,1.40
2019-02-20T15:23:02.905Z,1.70
2019-02-20T15:26:18.805Z,1.73
2019-02-20T15:29:34.423Z,1.80
2019-02-20T15:32:50.969Z,1.50
2019-02-20T15:36:06.752Z,1.60
2019-02-20T15:39:22.511Z,1.50
2019-02-20T15:42:38.388Z,1.50
2019-02-20T15:45:54.446Z,1.60
2019-02-20T15:49:10.169Z,1.50
2019-02-20T15:52:26.126Z,1.40
2019-02-20T15:59:04.105Z,1.40
2019-02-20T16:02:26.809Z,1.90
2019-02-20T16:05:42.456Z,1.47
2019-02-20T16:08:58.513Z,1.53
2019-02-20T16:12:14.340Z,1.63
2019-02-20T16:15:30.475Z,1.93
2019-02-20T16:18:46.515Z,1.63
2019-02-20T16:22:00.234Z,1.80
2019-02-20T16:25:16.345Z,1.63
2019-02-20T16:28:34.027Z,1.50
2019-02-20T16:31:50.021Z,1.50
2019-02-20T16:35:07.728Z,1.40
2019-02-20T16:38:22.755Z,1.60
2019-02-20T16:41:36.360Z,1.60
2019-02-20T16:44:59.069Z,1.70
2019-02-20T16:48:14.962Z,1.33
2019-02-20T16:51:30.327Z,1.37
2019-02-20T16:58:08.098Z,1.50
2019-02-20T17:01:30.955Z,1.77
2019-02-20T17:04:48.822Z,1.60
2019-02-20T17:07:52.185Z,1.70
2019-02-20T17:11:14.968Z,1.70
2019-02-20T17:14:37.681Z,1.67
2019-02-20T17:17:53.524Z,1.40
2019-02-20T17:21:09.474Z,1.73
2019-02-20T17:24:23.222Z,1.50
2019-02-20T17:27:45.975Z,1.40
2019-02-20T17:31:01.746Z,1.67
2019-02-20T17:34:17.907Z,1.60
2019-02-20T17:37:33.989Z,1.63
2019-02-20T17:40:50.036Z,1.37
2019-02-20T17:44:05.922Z,1.30
2019-02-20T17:47:21.797Z,1.40
2019-02-20T17:50:37.854Z,1.30
2019-02-20T17:53:53.439Z,1.57
2019-02-20T17:57:08.639Z,1.50
2019-02-20T18:00:25.962Z,1.50
2019-02-20T18:03:41.600Z,1.47
2019-02-20T18:06:57.839Z,1.30
2019-02-20T18:10:13.800Z,1.50
2019-02-20T18:13:29.850Z,1.40
2019-02-20T18:16:45.725Z,1.57
2019-02-20T18:20:01.547Z,1.37
2019-02-20T18:23:17.641Z,1.40
2019-02-20T18:26:33.623Z,1.60
2019-02-20T18:29:49.481Z,1.27
2019-02-20T18:33:05.368Z,1.50
2019-02-20T18:36:21.427Z,1.47
2019-02-20T18:39:37.272Z,1.40
2019-02-20T18:42:52.950Z,1.40
2019-02-20T18:46:09.031Z,1.30
2019-02-20T18:49:24.773Z,1.50
2019-02-20T18:52:40.626Z,1.37
2019-02-20T18:55:56.548Z,1.53
2019-02-20T18:59:12.264Z,1.30
2019-02-20T19:02:28.104Z,1.33
2019-02-20T19:05:43.909Z,1.40
2019-02-20T19:08:59.165Z,1.50
2019-02-20T19:12:15.301Z,1.30
2019-02-20T19:15:31.466Z,1.43
2019-02-20T19:18:47.503Z,1.67
2019-02-20T19:22:03.538Z,1.30
2019-02-20T19:25:18.828Z,1.50
2019-02-20T19:28:43.808Z,1.20
2019-02-20T19:31:51.331Z,1.53
2019-02-20T19:35:06.560Z,1.50
2019-02-20T19:38:21.890Z,1.43
2019-02-20T19:41:38.062Z,1.70
2019-02-20T19:44:54.075Z,1.60
2019-02-20T19:48:11.821Z,1.70
2019-02-20T19:51:26.716Z,1.50
2019-02-20T19:54:42.901Z,1.50
2019-02-20T19:57:58.215Z,1.70
2019-02-20T20:01:16.463Z,1.60
2019-02-20T20:04:58.659Z,1.80
2019-02-20T20:08:14.191Z,1.40
2019-02-20T20:11:30.287Z,1.70
2019-02-20T20:14:46.366Z,1.60
2019-02-20T20:18:01.614Z,1.60
2019-02-20T20:21:17.081Z,1.50
2019-02-20T20:24:32.931Z,1.63
2019-02-20T20:27:48.335Z,1.80
2019-02-20T20:31:03.649Z,1.80
2019-02-20T20:34:19.731Z,1.60
2019-02-20T20:37:34.986Z,1.67
2019-02-20T20:40:50.819Z,1.73
2019-02-20T20:44:06.847Z,1.73
2019-02-20T20:47:25.347Z,1.63
2019-02-20T20:51:07.508Z,1.63
2019-02-20T20:54:22.947Z,1.57
2019-02-20T20:57:38.350Z,1.80
2019-02-20T21:00:59.621Z,1.73
2019-02-20T21:04:33.931Z,1.60
2019-02-20T21:08:16.046Z,1.77
2019-02-20T21:11:31.301Z,1.80
2019-02-20T21:14:46.558Z,1.73
2019-02-20T21:18:02.644Z,1.90
2019-02-20T21:21:18.781Z,1.77
2019-02-20T21:24:34.582Z,1.90
2019-02-20T21:27:51.381Z,2.03
2019-02-20T21:31:07.583Z,1.70
2019-02-20T21:34:23.690Z,1.80
2019-02-20T21:37:39.750Z,1.73
2019-02-20T21:40:55.097Z,1.80
2019-02-20T21:44:11.038Z,1.93
2019-02-20T21:47:26.234Z,1.83
2019-02-20T21:50:41.415Z,1.60
2019-02-20T21:53:59.316Z,1.80
2019-02-20T21:57:14.621Z,2.03
2019-02-20T22:00:30.630Z,2.00
2019-02-20T22:03:46.543Z,1.90
2019-02-20T22:07:02.442Z,1.70
2019-02-20T22:10:18.499Z,1.83
2019-02-20T22:13:34.583Z,1.70
2019-02-20T22:16:50.391Z,1.67
2019-02-20T22:20:06.423Z,2.10
2019-02-20T22:23:27.443Z,2.20
2019-02-20T22:34:21.056Z,2.10
2019-02-20T22:37:36.538Z,2.00
2019-02-20T22:40:51.770Z,1.90
2019-02-20T22:44:07.020Z,1.80
2019-02-20T22:47:22.806Z,2.40
2019-02-20T22:50:38.063Z,2.00
2019-02-20T22:53:53.981Z,1.97
2019-02-20T22:57:09.950Z,2.10
2019-02-20T23:00:34.344Z,2.20
2019-02-20T23:03:44.879Z,2.17
2019-02-20T23:07:00.929Z,2.13
2019-02-20T23:10:16.090Z,2.00
2019-02-20T23:13:31.830Z,2.10
2019-02-20T23:16:47.630Z,1.93
2019-02-20T23:20:03.774Z,2.00
2019-02-20T23:23:19.829Z,2.10
2019-02-20T23:26:35.689Z,2.10
2019-02-20T23:29:50.956Z,2.10
2019-02-20T23:33:07.123Z,1.73
2019-02-20T23:36:23.318Z,2.00
2019-02-20T23:39:39.064Z,2.00
2019-02-20T23:46:19.146Z,2.50
2019-02-20T23:49:35.122Z,2.10
2019-02-20T23:52:50.890Z,2.07
2019-02-20T23:56:06.071Z,2.10
2019-02-20T23:59:21.744Z,2.43
